WZZ97TV LYBE-EDNY
Flight info
| Callsign | WZZ97TV |
|---|---|
| Flight time | 1h 26m |
| Altitude | 36000 |
| Route | TUVAR DCT BEDOX DCT ERKIR L608 KPT KPT1F |
| Aircraft | A321/M-SDE3FGHIRWY/LB1 |
Departure
| Time | 2026-04-20 13:51 |
|---|---|
| Airport | Belgrade Nikola Tesla Airport (LYBE) |
Arrival
| Time | 2026-04-20 15:17 |
|---|---|
| Airport | Bodensee Airport Friedrichshafen (EDNY) |
| Time | Latitude | Longitude | Altitude | Speed | Heading |
|---|---|---|---|---|---|
| 2026-04-20 13:26 | 44.81854 | 20.29206 | 307 ft | 0 kts | 302° |
| 2026-04-20 13:38 | 44.81847 | 20.29221 | 308 ft | 4 kts | 302° |
| 2026-04-20 13:38 | 44.81833 | 20.29252 | 306 ft | 4 kts | 313° |
| 2026-04-20 13:38 | 44.81814 | 20.29271 | 309 ft | 4 kts | 6° |
| 2026-04-20 13:39 | 44.81796 | 20.29261 | 309 ft | 4 kts | 32° |
| 2026-04-20 13:39 | 44.81791 | 20.29256 | 305 ft | 1 kts | 32° |
| 2026-04-20 13:41 | 44.81792 | 20.29257 | 308 ft | 1 kts | 32° |
| 2026-04-20 13:41 | 44.81824 | 20.29284 | 307 ft | 8 kts | 31° |
| 2026-04-20 13:41 | 44.81876 | 20.29331 | 308 ft | 9 kts | 32° |
| 2026-04-20 13:42 | 44.81935 | 20.29382 | 307 ft | 10 kts | 32° |
| 2026-04-20 13:42 | 44.82062 | 20.29493 | 308 ft | 11 kts | 32° |
| 2026-04-20 13:42 | 44.82114 | 20.29542 | 309 ft | 6 kts | 41° |
| 2026-04-20 13:43 | 44.82109 | 20.29601 | 308 ft | 9 kts | 117° |
| 2026-04-20 13:43 | 44.82070 | 20.29691 | 310 ft | 12 kts | 122° |
| 2026-04-20 13:43 | 44.82025 | 20.29794 | 307 ft | 13 kts | 122° |
| 2026-04-20 13:43 | 44.81975 | 20.29908 | 306 ft | 14 kts | 122° |
| 2026-04-20 13:44 | 44.81920 | 20.30032 | 308 ft | 15 kts | 122° |
| 2026-04-20 13:44 | 44.81863 | 20.30160 | 308 ft | 16 kts | 122° |
| 2026-04-20 13:44 | 44.81804 | 20.30295 | 308 ft | 16 kts | 122° |
| 2026-04-20 13:44 | 44.81743 | 20.30431 | 311 ft | 17 kts | 122° |
| 2026-04-20 13:45 | 44.81680 | 20.30573 | 308 ft | 17 kts | 122° |
| 2026-04-20 13:45 | 44.81614 | 20.30719 | 308 ft | 18 kts | 122° |
| 2026-04-20 13:45 | 44.81544 | 20.30876 | 307 ft | 19 kts | 122° |
| 2026-04-20 13:45 | 44.81472 | 20.31039 | 306 ft | 20 kts | 122° |
| 2026-04-20 13:46 | 44.81397 | 20.31212 | 307 ft | 21 kts | 121° |
| 2026-04-20 13:46 | 44.81322 | 20.31383 | 306 ft | 20 kts | 122° |
| 2026-04-20 13:46 | 44.81247 | 20.31551 | 307 ft | 20 kts | 122° |
| 2026-04-20 13:46 | 44.81172 | 20.31721 | 309 ft | 21 kts | 122° |
| 2026-04-20 13:47 | 44.81103 | 20.31876 | 309 ft | 15 kts | 122° |
| 2026-04-20 13:47 | 44.81051 | 20.31991 | 310 ft | 13 kts | 122° |
| 2026-04-20 13:47 | 44.81003 | 20.32099 | 308 ft | 12 kts | 120° |
| 2026-04-20 13:47 | 44.81000 | 20.32217 | 306 ft | 13 kts | 63° |
| 2026-04-20 13:48 | 44.81066 | 20.32291 | 307 ft | 11 kts | 21° |
| 2026-04-20 13:48 | 44.81131 | 20.32310 | 306 ft | 9 kts | 7° |
| 2026-04-20 13:48 | 44.81197 | 20.32300 | 308 ft | 10 kts | 343° |
| 2026-04-20 13:48 | 44.81249 | 20.32248 | 308 ft | 9 kts | 305° |
| 2026-04-20 13:49 | 44.81253 | 20.32238 | 308 ft | 0 kts | 303° |
| 2026-04-20 13:50 | 44.81254 | 20.32237 | 308 ft | 1 kts | 303° |
| 2026-04-20 13:50 | 44.81359 | 20.32001 | 309 ft | 64 kts | 302° |
| 2026-04-20 13:50 | 44.81716 | 20.31200 | 308 ft | 126 kts | 302° |
| 2026-04-20 13:51 | 44.82258 | 20.29968 | 454 ft | 159 kts | 299° |
| 2026-04-20 13:51 | 44.82850 | 20.28665 | 1142 ft | 158 kts | 302° |
| 2026-04-20 13:51 | 44.83443 | 20.27364 | 1833 ft | 158 kts | 301° |
| 2026-04-20 13:51 | 44.84040 | 20.26030 | 2272 ft | 167 kts | 301° |
| 2026-04-20 13:52 | 44.84700 | 20.24550 | 2459 ft | 190 kts | 302° |
| 2026-04-20 13:52 | 44.85444 | 20.22873 | 2646 ft | 214 kts | 302° |
| 2026-04-20 13:52 | 44.86249 | 20.21054 | 3127 ft | 225 kts | 302° |
| 2026-04-20 13:52 | 44.87081 | 20.19177 | 3926 ft | 226 kts | 302° |
| 2026-04-20 13:53 | 44.87922 | 20.17277 | 4663 ft | 230 kts | 303° |
| 2026-04-20 13:53 | 44.88773 | 20.15349 | 5389 ft | 233 kts | 303° |
| 2026-04-20 13:53 | 44.89632 | 20.13395 | 6128 ft | 235 kts | 302° |
| 2026-04-20 13:53 | 44.90498 | 20.11420 | 6855 ft | 237 kts | 302° |
| 2026-04-20 13:54 | 44.91368 | 20.09434 | 7579 ft | 239 kts | 301° |
| 2026-04-20 13:54 | 44.92245 | 20.07433 | 8289 ft | 241 kts | 301° |
| 2026-04-20 13:54 | 44.93132 | 20.05411 | 9010 ft | 243 kts | 301° |
| 2026-04-20 13:54 | 44.94025 | 20.03375 | 9735 ft | 245 kts | 301° |
| 2026-04-20 13:55 | 44.94926 | 20.01318 | 10397 ft | 247 kts | 301° |
| 2026-04-20 13:55 | 44.95835 | 19.99240 | 11048 ft | 250 kts | 300° |
| 2026-04-20 13:55 | 44.96750 | 19.97147 | 11696 ft | 252 kts | 300° |
| 2026-04-20 13:55 | 44.97674 | 19.95032 | 12336 ft | 254 kts | 300° |
| 2026-04-20 13:56 | 44.98598 | 19.92919 | 12969 ft | 257 kts | 300° |
| 2026-04-20 13:56 | 44.99233 | 19.91463 | 13403 ft | 259 kts | 300° |
| 2026-04-20 13:56 | 45.00158 | 19.89267 | 13997 ft | 261 kts | 295° |
| 2026-04-20 13:56 | 45.00774 | 19.86822 | 14338 ft | 273 kts | 282° |
| 2026-04-20 13:57 | 45.01186 | 19.84131 | 14660 ft | 285 kts | 281° |
| 2026-04-20 13:57 | 45.01604 | 19.81374 | 15200 ft | 289 kts | 281° |
| 2026-04-20 13:57 | 45.02027 | 19.78583 | 15794 ft | 292 kts | 281° |
| 2026-04-20 13:57 | 45.02455 | 19.75769 | 16392 ft | 294 kts | 281° |
| 2026-04-20 13:58 | 45.02887 | 19.72934 | 16993 ft | 296 kts | 281° |
| 2026-04-20 13:58 | 45.03325 | 19.70073 | 17574 ft | 299 kts | 281° |
| 2026-04-20 13:58 | 45.03764 | 19.67189 | 18166 ft | 301 kts | 281° |
| 2026-04-20 13:58 | 45.04207 | 19.64283 | 18691 ft | 303 kts | 281° |
| 2026-04-20 13:59 | 45.04651 | 19.61366 | 19243 ft | 304 kts | 282° |
| 2026-04-20 13:59 | 45.05094 | 19.58446 | 19798 ft | 304 kts | 282° |
| 2026-04-20 13:59 | 45.05537 | 19.55526 | 20359 ft | 304 kts | 282° |
| 2026-04-20 13:59 | 45.05980 | 19.52610 | 20917 ft | 303 kts | 282° |
| 2026-04-20 14:00 | 45.06416 | 19.49727 | 21471 ft | 303 kts | 282° |
| 2026-04-20 14:00 | 45.06851 | 19.46829 | 22101 ft | 301 kts | 282° |
| 2026-04-20 14:00 | 45.07286 | 19.43927 | 22666 ft | 301 kts | 282° |
| 2026-04-20 14:00 | 45.07721 | 19.41030 | 23223 ft | 301 kts | 282° |
| 2026-04-20 14:01 | 45.08155 | 19.38127 | 23732 ft | 302 kts | 283° |
| 2026-04-20 14:01 | 45.08589 | 19.35222 | 24167 ft | 302 kts | 283° |
| 2026-04-20 14:01 | 45.09023 | 19.32309 | 24597 ft | 303 kts | 283° |
| 2026-04-20 14:01 | 45.09460 | 19.29390 | 25023 ft | 303 kts | 283° |
| 2026-04-20 14:02 | 45.09899 | 19.26465 | 25446 ft | 304 kts | 283° |
| 2026-04-20 14:02 | 45.10338 | 19.23527 | 25856 ft | 305 kts | 284° |
| 2026-04-20 14:02 | 45.10775 | 19.20591 | 26292 ft | 305 kts | 284° |
| 2026-04-20 14:02 | 45.11211 | 19.17645 | 26710 ft | 306 kts | 284° |
| 2026-04-20 14:03 | 45.11648 | 19.14683 | 27129 ft | 307 kts | 284° |
| 2026-04-20 14:03 | 45.12085 | 19.11720 | 27532 ft | 308 kts | 284° |
| 2026-04-20 14:03 | 45.12541 | 19.08756 | 27932 ft | 308 kts | 288° |
| 2026-04-20 14:03 | 45.13325 | 19.05930 | 28213 ft | 312 kts | 297° |
| 2026-04-20 14:04 | 45.14334 | 19.03218 | 28356 ft | 319 kts | 297° |
| 2026-04-20 14:04 | 45.15387 | 19.00403 | 28496 ft | 327 kts | 297° |
| 2026-04-20 14:04 | 45.16461 | 18.97527 | 28630 ft | 334 kts | 297° |
| 2026-04-20 14:04 | 45.17557 | 18.94581 | 28777 ft | 341 kts | 297° |
| 2026-04-20 14:05 | 45.18671 | 18.91580 | 28916 ft | 347 kts | 297° |
| 2026-04-20 14:05 | 45.19803 | 18.88525 | 29060 ft | 354 kts | 297° |
| 2026-04-20 14:05 | 45.20956 | 18.85399 | 29197 ft | 360 kts | 297° |
| 2026-04-20 14:05 | 45.22124 | 18.82228 | 29345 ft | 366 kts | 297° |
| 2026-04-20 14:06 | 45.23307 | 18.79010 | 29493 ft | 371 kts | 297° |
| 2026-04-20 14:06 | 45.24511 | 18.75733 | 29648 ft | 376 kts | 297° |
| 2026-04-20 14:06 | 45.25727 | 18.72427 | 29942 ft | 378 kts | 297° |
| 2026-04-20 14:06 | 45.26941 | 18.69113 | 30320 ft | 377 kts | 297° |
| 2026-04-20 14:07 | 45.28137 | 18.65846 | 30672 ft | 377 kts | 297° |
| 2026-04-20 14:07 | 45.29347 | 18.62538 | 31015 ft | 376 kts | 297° |
| 2026-04-20 14:07 | 45.30550 | 18.59245 | 31356 ft | 375 kts | 297° |
| 2026-04-20 14:07 | 45.31754 | 18.55953 | 31679 ft | 375 kts | 297° |
| 2026-04-20 14:08 | 45.32954 | 18.52667 | 32016 ft | 375 kts | 297° |
| 2026-04-20 14:08 | 45.34154 | 18.49381 | 32348 ft | 374 kts | 297° |
| 2026-04-20 14:08 | 45.35353 | 18.46095 | 32673 ft | 374 kts | 297° |
| 2026-04-20 14:08 | 45.36548 | 18.42809 | 33015 ft | 373 kts | 297° |
| 2026-04-20 14:09 | 45.37736 | 18.39533 | 33360 ft | 373 kts | 297° |
| 2026-04-20 14:09 | 45.38904 | 18.36302 | 33702 ft | 372 kts | 297° |
| 2026-04-20 14:09 | 45.40103 | 18.32987 | 34026 ft | 371 kts | 297° |
| 2026-04-20 14:09 | 45.41284 | 18.29721 | 34273 ft | 372 kts | 297° |
| 2026-04-20 14:10 | 45.42452 | 18.26485 | 34471 ft | 373 kts | 297° |
| 2026-04-20 14:10 | 45.43642 | 18.23191 | 34648 ft | 375 kts | 297° |
| 2026-04-20 14:10 | 45.44839 | 18.19877 | 34829 ft | 376 kts | 297° |
| 2026-04-20 14:10 | 45.46040 | 18.16546 | 35013 ft | 378 kts | 297° |
| 2026-04-20 14:11 | 45.47248 | 18.13195 | 35187 ft | 380 kts | 297° |
| 2026-04-20 14:11 | 45.48455 | 18.09837 | 35362 ft | 382 kts | 297° |
| 2026-04-20 14:11 | 45.49650 | 18.06505 | 35547 ft | 383 kts | 297° |
| 2026-04-20 14:11 | 45.50866 | 18.03111 | 35733 ft | 385 kts | 297° |
| 2026-04-20 14:12 | 45.52085 | 17.99705 | 35930 ft | 386 kts | 297° |
| 2026-04-20 14:12 | 45.53306 | 17.96283 | 36028 ft | 388 kts | 297° |
| 2026-04-20 14:12 | 45.55757 | 17.89391 | 36051 ft | 389 kts | 296° |
| 2026-04-20 14:13 | 45.58197 | 17.82512 | 36037 ft | 388 kts | 296° |
| 2026-04-20 14:13 | 45.60643 | 17.75628 | 36049 ft | 388 kts | 296° |
| 2026-04-20 14:14 | 45.63087 | 17.68743 | 36049 ft | 388 kts | 296° |
| 2026-04-20 14:14 | 45.65506 | 17.61897 | 36050 ft | 388 kts | 296° |
| 2026-04-20 14:15 | 45.67940 | 17.54988 | 36054 ft | 389 kts | 296° |
| 2026-04-20 14:15 | 45.70370 | 17.48062 | 36058 ft | 389 kts | 296° |
| 2026-04-20 14:16 | 45.72795 | 17.41122 | 36060 ft | 390 kts | 296° |
| 2026-04-20 14:16 | 45.75223 | 17.34179 | 36061 ft | 390 kts | 296° |
| 2026-04-20 14:17 | 45.77642 | 17.27227 | 36064 ft | 390 kts | 296° |
| 2026-04-20 14:17 | 45.80060 | 17.20262 | 36066 ft | 390 kts | 296° |
| 2026-04-20 14:18 | 45.82473 | 17.13309 | 36055 ft | 390 kts | 296° |
| 2026-04-20 14:18 | 45.84887 | 17.06341 | 36061 ft | 390 kts | 296° |
| 2026-04-20 14:19 | 45.87281 | 16.99405 | 36066 ft | 390 kts | 296° |
| 2026-04-20 14:19 | 45.89688 | 16.92396 | 36069 ft | 391 kts | 296° |
| 2026-04-20 14:20 | 45.92090 | 16.85375 | 36072 ft | 391 kts | 296° |
| 2026-04-20 14:20 | 45.94476 | 16.78382 | 36069 ft | 389 kts | 296° |
| 2026-04-20 14:21 | 45.96845 | 16.71445 | 36068 ft | 388 kts | 296° |
| 2026-04-20 14:21 | 45.99225 | 16.64466 | 36071 ft | 389 kts | 296° |
| 2026-04-20 14:22 | 46.01601 | 16.57476 | 36070 ft | 389 kts | 296° |
| 2026-04-20 14:22 | 46.03972 | 16.50472 | 36074 ft | 389 kts | 295° |
| 2026-04-20 14:23 | 46.06331 | 16.43498 | 36079 ft | 389 kts | 295° |
| 2026-04-20 14:23 | 46.08693 | 16.36477 | 36080 ft | 389 kts | 295° |
| 2026-04-20 14:24 | 46.11051 | 16.29451 | 36077 ft | 389 kts | 295° |
| 2026-04-20 14:24 | 46.13409 | 16.22417 | 36075 ft | 389 kts | 295° |
| 2026-04-20 14:25 | 46.15757 | 16.15371 | 36073 ft | 389 kts | 295° |
| 2026-04-20 14:25 | 46.18087 | 16.08369 | 36074 ft | 390 kts | 295° |
| 2026-04-20 14:26 | 46.20436 | 16.01301 | 36077 ft | 390 kts | 295° |
| 2026-04-20 14:26 | 46.22771 | 15.94244 | 36077 ft | 390 kts | 295° |
| 2026-04-20 14:27 | 46.25089 | 15.87212 | 36074 ft | 390 kts | 295° |
| 2026-04-20 14:27 | 46.27436 | 15.80145 | 36072 ft | 389 kts | 296° |
| 2026-04-20 14:28 | 46.29915 | 15.73195 | 36082 ft | 388 kts | 297° |
| 2026-04-20 14:28 | 46.32425 | 15.66300 | 36065 ft | 387 kts | 297° |
| 2026-04-20 14:29 | 46.34905 | 15.59382 | 36063 ft | 387 kts | 297° |
| 2026-04-20 14:29 | 46.37361 | 15.52449 | 36054 ft | 387 kts | 296° |
| 2026-04-20 14:30 | 46.39811 | 15.45503 | 36053 ft | 387 kts | 297° |
| 2026-04-20 14:30 | 46.42257 | 15.38555 | 36044 ft | 387 kts | 296° |
| 2026-04-20 14:31 | 46.44703 | 15.31608 | 36048 ft | 387 kts | 296° |
| 2026-04-20 14:31 | 46.47142 | 15.24653 | 36043 ft | 387 kts | 296° |
| 2026-04-20 14:32 | 46.49561 | 15.17729 | 36042 ft | 387 kts | 296° |
| 2026-04-20 14:32 | 46.51994 | 15.10746 | 36033 ft | 387 kts | 296° |
| 2026-04-20 14:33 | 46.54425 | 15.03761 | 36015 ft | 387 kts | 296° |
| 2026-04-20 14:33 | 46.56847 | 14.96783 | 36015 ft | 387 kts | 296° |
| 2026-04-20 14:34 | 46.59266 | 14.89800 | 36017 ft | 386 kts | 296° |
| 2026-04-20 14:34 | 46.61681 | 14.82806 | 36008 ft | 386 kts | 296° |
| 2026-04-20 14:35 | 46.64091 | 14.75817 | 36022 ft | 386 kts | 296° |
| 2026-04-20 14:35 | 46.66479 | 14.68872 | 35991 ft | 385 kts | 296° |
| 2026-04-20 14:36 | 46.68870 | 14.61893 | 35998 ft | 385 kts | 296° |
| 2026-04-20 14:36 | 46.71261 | 14.54899 | 35997 ft | 385 kts | 296° |
| 2026-04-20 14:37 | 46.73634 | 14.47913 | 35992 ft | 384 kts | 296° |
| 2026-04-20 14:37 | 46.76008 | 14.40919 | 35994 ft | 384 kts | 296° |
| 2026-04-20 14:38 | 46.78374 | 14.33936 | 35974 ft | 384 kts | 296° |
| 2026-04-20 14:38 | 46.80740 | 14.26938 | 35971 ft | 385 kts | 296° |
| 2026-04-20 14:39 | 46.83091 | 14.19962 | 35971 ft | 385 kts | 296° |
| 2026-04-20 14:39 | 46.85462 | 14.12918 | 35979 ft | 386 kts | 296° |
| 2026-04-20 14:40 | 46.87827 | 14.05869 | 35984 ft | 386 kts | 296° |
| 2026-04-20 14:40 | 46.90186 | 13.98806 | 35968 ft | 387 kts | 295° |
| 2026-04-20 14:41 | 46.92535 | 13.91769 | 35967 ft | 388 kts | 295° |
| 2026-04-20 14:41 | 46.94898 | 13.84652 | 35972 ft | 389 kts | 295° |
| 2026-04-20 14:42 | 46.97268 | 13.77512 | 36020 ft | 390 kts | 295° |
| 2026-04-20 14:42 | 46.99637 | 13.70348 | 36020 ft | 390 kts | 295° |
| 2026-04-20 14:43 | 47.01996 | 13.63183 | 36011 ft | 391 kts | 295° |
| 2026-04-20 14:43 | 47.04345 | 13.56054 | 36012 ft | 391 kts | 295° |
| 2026-04-20 14:44 | 47.06712 | 13.48862 | 36016 ft | 391 kts | 295° |
| 2026-04-20 14:44 | 47.09069 | 13.41657 | 36024 ft | 392 kts | 295° |
| 2026-04-20 14:45 | 47.11423 | 13.34414 | 36037 ft | 393 kts | 295° |
| 2026-04-20 14:45 | 47.13776 | 13.27156 | 36051 ft | 393 kts | 295° |
| 2026-04-20 14:46 | 47.15735 | 13.21125 | 36050 ft | 393 kts | 295° |
| 2026-04-20 14:46 | 47.18086 | 13.13869 | 36047 ft | 393 kts | 295° |
| 2026-04-20 14:47 | 47.20426 | 13.06617 | 36041 ft | 391 kts | 295° |
| 2026-04-20 14:48 | 47.23926 | 12.95714 | 36069 ft | 392 kts | 295° |
| 2026-04-20 14:48 | 47.26256 | 12.88443 | 36059 ft | 393 kts | 295° |
| 2026-04-20 14:49 | 47.28585 | 12.81139 | 36070 ft | 394 kts | 295° |
| 2026-04-20 14:49 | 47.30894 | 12.73882 | 36098 ft | 394 kts | 295° |
| 2026-04-20 14:50 | 47.33217 | 12.66582 | 36093 ft | 393 kts | 295° |
| 2026-04-20 14:50 | 47.35537 | 12.59278 | 36088 ft | 393 kts | 295° |
| 2026-04-20 14:51 | 47.37841 | 12.51973 | 36084 ft | 392 kts | 295° |
| 2026-04-20 14:51 | 47.40134 | 12.44668 | 36080 ft | 393 kts | 295° |
| 2026-04-20 14:52 | 47.42432 | 12.37351 | 36079 ft | 393 kts | 294° |
| 2026-04-20 14:52 | 47.44728 | 12.30010 | 36080 ft | 393 kts | 295° |
| 2026-04-20 14:53 | 47.46999 | 12.22727 | 36083 ft | 393 kts | 294° |
| 2026-04-20 14:53 | 47.49288 | 12.15374 | 36083 ft | 393 kts | 294° |
| 2026-04-20 14:54 | 47.51571 | 12.08018 | 36074 ft | 393 kts | 294° |
| 2026-04-20 14:54 | 47.53747 | 12.00600 | 36075 ft | 393 kts | 288° |
| 2026-04-20 14:55 | 47.54945 | 11.92684 | 36076 ft | 394 kts | 283° |
| 2026-04-20 14:55 | 47.56056 | 11.84738 | 36074 ft | 394 kts | 283° |
| 2026-04-20 14:56 | 47.57167 | 11.76764 | 36054 ft | 396 kts | 283° |
| 2026-04-20 14:56 | 47.58281 | 11.68766 | 36056 ft | 396 kts | 283° |
| 2026-04-20 14:57 | 47.59383 | 11.60754 | 36057 ft | 397 kts | 283° |
| 2026-04-20 14:57 | 47.60486 | 11.52715 | 36066 ft | 398 kts | 283° |
| 2026-04-20 14:58 | 47.61574 | 11.44735 | 36064 ft | 398 kts | 283° |
| 2026-04-20 14:58 | 47.62651 | 11.36720 | 35565 ft | 394 kts | 282° |
| 2026-04-20 14:58 | 47.63150 | 11.32715 | 34994 ft | 395 kts | 282° |
| 2026-04-20 14:59 | 47.63632 | 11.28697 | 34457 ft | 394 kts | 281° |
| 2026-04-20 14:59 | 47.64104 | 11.24706 | 33926 ft | 393 kts | 281° |
| 2026-04-20 14:59 | 47.64576 | 11.20725 | 33329 ft | 391 kts | 282° |
| 2026-04-20 14:59 | 47.65048 | 11.16758 | 32690 ft | 390 kts | 282° |
| 2026-04-20 15:00 | 47.65521 | 11.12793 | 32085 ft | 389 kts | 282° |
| 2026-04-20 15:00 | 47.65994 | 11.08858 | 31634 ft | 384 kts | 282° |
| 2026-04-20 15:00 | 47.66454 | 11.05032 | 31177 ft | 380 kts | 282° |
| 2026-04-20 15:00 | 47.66904 | 11.01195 | 30700 ft | 374 kts | 281° |
| 2026-04-20 15:01 | 47.67300 | 10.97432 | 29769 ft | 365 kts | 280° |
| 2026-04-20 15:01 | 47.67653 | 10.93750 | 28594 ft | 357 kts | 280° |
| 2026-04-20 15:01 | 47.67983 | 10.90133 | 27482 ft | 350 kts | 280° |
| 2026-04-20 15:01 | 47.68307 | 10.86586 | 26418 ft | 343 kts | 280° |
| 2026-04-20 15:02 | 47.68630 | 10.83114 | 25390 ft | 336 kts | 280° |
| 2026-04-20 15:02 | 47.68951 | 10.79706 | 24419 ft | 330 kts | 280° |
| 2026-04-20 15:02 | 47.69272 | 10.76363 | 23457 ft | 324 kts | 280° |
| 2026-04-20 15:02 | 47.69587 | 10.73083 | 22367 ft | 319 kts | 280° |
| 2026-04-20 15:03 | 47.69899 | 10.69848 | 21282 ft | 315 kts | 280° |
| 2026-04-20 15:03 | 47.70207 | 10.66645 | 20219 ft | 312 kts | 280° |
| 2026-04-20 15:03 | 47.70513 | 10.63477 | 19154 ft | 309 kts | 280° |
| 2026-04-20 15:03 | 47.70810 | 10.60331 | 18108 ft | 307 kts | 279° |
| 2026-04-20 15:04 | 47.71104 | 10.57208 | 16963 ft | 305 kts | 279° |
| 2026-04-20 15:04 | 47.71396 | 10.54100 | 15842 ft | 303 kts | 278° |
| 2026-04-20 15:04 | 47.71686 | 10.51007 | 14772 ft | 302 kts | 278° |
| 2026-04-20 15:04 | 47.71972 | 10.47923 | 13728 ft | 301 kts | 278° |
| 2026-04-20 15:05 | 47.72259 | 10.44844 | 12594 ft | 300 kts | 278° |
| 2026-04-20 15:05 | 47.72543 | 10.41770 | 11523 ft | 300 kts | 277° |
| 2026-04-20 15:05 | 47.72822 | 10.38742 | 10515 ft | 300 kts | 277° |
| 2026-04-20 15:05 | 47.73102 | 10.35690 | 9721 ft | 292 kts | 277° |
| 2026-04-20 15:06 | 47.73365 | 10.32822 | 9453 ft | 269 kts | 277° |
| 2026-04-20 15:06 | 47.73607 | 10.30182 | 9176 ft | 250 kts | 277° |
| 2026-04-20 15:06 | 47.73839 | 10.27649 | 8590 ft | 245 kts | 278° |
| 2026-04-20 15:06 | 47.74068 | 10.25146 | 7940 ft | 244 kts | 278° |
| 2026-04-20 15:07 | 47.74294 | 10.22663 | 7341 ft | 242 kts | 278° |
| 2026-04-20 15:07 | 47.74519 | 10.20196 | 6760 ft | 239 kts | 279° |
| 2026-04-20 15:07 | 47.74741 | 10.17758 | 6076 ft | 239 kts | 278° |
| 2026-04-20 15:07 | 47.74966 | 10.15276 | 5587 ft | 242 kts | 279° |
| 2026-04-20 15:08 | 47.75188 | 10.12806 | 5242 ft | 240 kts | 279° |
| 2026-04-20 15:08 | 47.75408 | 10.10345 | 4922 ft | 239 kts | 279° |
| 2026-04-20 15:08 | 47.75628 | 10.07889 | 4546 ft | 240 kts | 279° |
| 2026-04-20 15:08 | 47.75850 | 10.05430 | 4251 ft | 239 kts | 280° |
| 2026-04-20 15:09 | 47.76061 | 10.03040 | 4155 ft | 226 kts | 279° |
| 2026-04-20 15:09 | 47.76258 | 10.00816 | 4047 ft | 214 kts | 278° |
| 2026-04-20 15:09 | 47.76450 | 9.98648 | 4041 ft | 208 kts | 280° |
| 2026-04-20 15:09 | 47.76641 | 9.96505 | 4020 ft | 207 kts | 280° |
| 2026-04-20 15:10 | 47.76830 | 9.94387 | 4019 ft | 208 kts | 279° |
| 2026-04-20 15:10 | 47.77016 | 9.92306 | 4005 ft | 195 kts | 280° |
| 2026-04-20 15:10 | 47.77192 | 9.90327 | 4013 ft | 191 kts | 279° |
| 2026-04-20 15:10 | 47.77362 | 9.88415 | 4010 ft | 187 kts | 280° |
| 2026-04-20 15:11 | 47.77532 | 9.86495 | 4018 ft | 188 kts | 279° |
| 2026-04-20 15:11 | 47.77699 | 9.84567 | 4015 ft | 188 kts | 279° |
| 2026-04-20 15:11 | 47.77868 | 9.82635 | 4015 ft | 189 kts | 279° |
| 2026-04-20 15:11 | 47.77994 | 9.80683 | 4015 ft | 190 kts | 270° |
| 2026-04-20 15:12 | 47.77735 | 9.78753 | 4011 ft | 193 kts | 252° |
| 2026-04-20 15:12 | 47.77114 | 9.77001 | 4006 ft | 184 kts | 243° |
| 2026-04-20 15:12 | 47.76511 | 9.75453 | 4036 ft | 165 kts | 244° |
| 2026-04-20 15:12 | 47.75954 | 9.74015 | 4015 ft | 158 kts | 245° |
| 2026-04-20 15:13 | 47.75411 | 9.72604 | 4012 ft | 157 kts | 244° |
| 2026-04-20 15:13 | 47.74881 | 9.71225 | 4010 ft | 156 kts | 242° |
| 2026-04-20 15:13 | 47.74343 | 9.69827 | 3982 ft | 156 kts | 242° |
| 2026-04-20 15:13 | 47.73806 | 9.68431 | 3844 ft | 155 kts | 242° |
| 2026-04-20 15:14 | 47.73272 | 9.67046 | 3665 ft | 154 kts | 242° |
| 2026-04-20 15:14 | 47.72741 | 9.65667 | 3475 ft | 154 kts | 242° |
| 2026-04-20 15:14 | 47.72209 | 9.64287 | 3270 ft | 154 kts | 242° |
| 2026-04-20 15:14 | 47.71679 | 9.62912 | 3060 ft | 153 kts | 242° |
| 2026-04-20 15:15 | 47.71149 | 9.61539 | 2849 ft | 153 kts | 242° |
| 2026-04-20 15:15 | 47.70620 | 9.60168 | 2650 ft | 153 kts | 242° |
| 2026-04-20 15:15 | 47.70093 | 9.58805 | 2437 ft | 152 kts | 241° |
| 2026-04-20 15:15 | 47.69566 | 9.57441 | 2219 ft | 151 kts | 241° |
| 2026-04-20 15:16 | 47.69049 | 9.56094 | 2006 ft | 149 kts | 241° |
| 2026-04-20 15:16 | 47.68537 | 9.54776 | 1787 ft | 145 kts | 240° |
| 2026-04-20 15:16 | 47.68037 | 9.53487 | 1599 ft | 144 kts | 240° |
| 2026-04-20 15:16 | 47.67543 | 9.52204 | 1411 ft | 143 kts | 239° |
| 2026-04-20 15:17 | 47.67114 | 9.51105 | 1376 ft | 88 kts | 240° |
| 2026-04-20 15:17 | 47.66952 | 9.50691 | 1373 ft | 21 kts | 240° |
| 2026-04-20 15:17 | 47.66875 | 9.50489 | 1375 ft | 23 kts | 240° |
| 2026-04-20 15:17 | 47.66795 | 9.50285 | 1375 ft | 22 kts | 239° |
| 2026-04-20 15:18 | 47.66729 | 9.50113 | 1376 ft | 18 kts | 240° |
| 2026-04-20 15:18 | 47.66664 | 9.49946 | 1375 ft | 19 kts | 240° |
| 2026-04-20 15:18 | 47.66608 | 9.49835 | 1375 ft | 13 kts | 202° |
| 2026-04-20 15:18 | 47.66534 | 9.49902 | 1373 ft | 14 kts | 124° |
| 2026-04-20 15:19 | 47.66480 | 9.50034 | 1376 ft | 15 kts | 117° |
| 2026-04-20 15:19 | 47.66491 | 9.50191 | 1375 ft | 16 kts | 62° |
| 2026-04-20 15:19 | 47.66549 | 9.50342 | 1374 ft | 18 kts | 60° |
| 2026-04-20 15:19 | 47.66613 | 9.50506 | 1374 ft | 19 kts | 60° |
| 2026-04-20 15:20 | 47.66684 | 9.50676 | 1373 ft | 19 kts | 44° |
| 2026-04-20 15:20 | 47.66795 | 9.50779 | 1375 ft | 18 kts | 38° |
| 2026-04-20 15:20 | 47.66866 | 9.50934 | 1374 ft | 17 kts | 60° |
| 2026-04-20 15:20 | 47.66929 | 9.51095 | 1375 ft | 19 kts | 60° |
| 2026-04-20 15:21 | 47.66995 | 9.51265 | 1374 ft | 19 kts | 60° |
| 2026-04-20 15:21 | 47.67063 | 9.51441 | 1375 ft | 20 kts | 60° |
| 2026-04-20 15:21 | 47.67135 | 9.51626 | 1374 ft | 21 kts | 60° |
| 2026-04-20 15:21 | 47.67207 | 9.51814 | 1375 ft | 20 kts | 60° |
| 2026-04-20 15:22 | 47.67279 | 9.51999 | 1375 ft | 19 kts | 60° |
| 2026-04-20 15:22 | 47.67333 | 9.52140 | 1373 ft | 15 kts | 60° |
| 2026-04-20 15:22 | 47.67385 | 9.52270 | 1374 ft | 14 kts | 59° |
| 2026-04-20 15:22 | 47.67417 | 9.52370 | 1376 ft | 9 kts | 95° |
| 2026-04-20 15:23 | 47.67380 | 9.52420 | 1375 ft | 6 kts | 169° |
| 2026-04-20 15:23 | 47.67371 | 9.52407 | 1376 ft | 2 kts | 238° |
| 2026-04-20 15:23 | 47.67370 | 9.52405 | 1376 ft | 0 kts | 239° |
| 2026-04-20 15:24 | 47.67374 | 9.52393 | 1372 ft | 0 kts | 175° |